createdAt,value
2022-07-31T00:02:57.940Z,19.10
2022-07-31T00:08:59.685Z,18.90
2022-07-31T00:15:04.126Z,18.70
2022-07-31T00:21:07.462Z,18.70
2022-07-31T00:27:10.837Z,18.50
2022-07-31T00:33:12.641Z,18.40
2022-07-31T00:39:14.974Z,18.30
2022-07-31T00:45:16.699Z,18.20
2022-07-31T00:51:23.974Z,18.20
2022-07-31T00:57:25.892Z,18.10
2022-07-31T01:03:27.725Z,18.10
2022-07-31T01:09:29.681Z,18.20
2022-07-31T01:15:31.968Z,18.20
2022-07-31T01:21:39.829Z,18.10
2022-07-31T01:27:58.355Z,17.90
2022-07-31T01:34:24.469Z,17.80
2022-07-31T01:40:37.717Z,17.80
2022-07-31T01:46:41.503Z,17.70
2022-07-31T01:52:43.764Z,17.60
2022-07-31T01:58:47.505Z,17.70
2022-07-31T02:04:50.042Z,17.70
2022-07-31T02:10:53.093Z,17.50
2022-07-31T02:16:55.532Z,17.60
2022-07-31T02:22:58.615Z,17.50
2022-07-31T02:29:01.156Z,17.30
2022-07-31T02:35:04.449Z,17.10
2022-07-31T02:41:07.294Z,17.20
2022-07-31T02:47:09.298Z,17.20
2022-07-31T02:53:11.484Z,17.20
2022-07-31T02:59:13.244Z,17.10
2022-07-31T03:05:15.740Z,17.20
2022-07-31T03:11:17.944Z,17.20
2022-07-31T03:17:20.392Z,17.30
2022-07-31T03:23:25.300Z,17.30
2022-07-31T03:29:41.839Z,17.20
2022-07-31T03:35:45.596Z,17.20
2022-07-31T03:41:48.253Z,17.30
2022-07-31T03:47:50.136Z,17.10
2022-07-31T03:53:52.061Z,16.90
2022-07-31T03:59:57.691Z,17.10
2022-07-31T04:06:00.255Z,17.20
2022-07-31T04:12:02.473Z,17.00
2022-07-31T04:18:04.406Z,16.90
2022-07-31T04:24:06.680Z,16.80
2022-07-31T04:30:09.408Z,16.90
2022-07-31T04:36:29.845Z,17.00
2022-07-31T04:42:32.852Z,17.00
2022-07-31T04:48:35.803Z,17.10
2022-07-31T04:54:43.496Z,17.00
2022-07-31T05:00:45.214Z,17.20
2022-07-31T05:06:48.912Z,17.20
2022-07-31T05:12:50.667Z,17.20
2022-07-31T05:18:52.424Z,17.20
2022-07-31T05:24:54.603Z,17.20
2022-07-31T05:30:56.337Z,17.30
2022-07-31T05:37:01.882Z,17.30
2022-07-31T05:43:03.843Z,17.40
2022-07-31T05:49:05.647Z,17.40
2022-07-31T05:55:07.846Z,17.40
2022-07-31T06:01:09.570Z,17.40
2022-07-31T06:07:11.284Z,17.60
2022-07-31T06:13:14.746Z,17.60
2022-07-31T06:19:16.729Z,17.70
2022-07-31T06:25:18.639Z,17.70
2022-07-31T06:31:22.600Z,17.80
2022-07-31T06:37:24.363Z,17.90
2022-07-31T06:43:26.041Z,18.00
2022-07-31T06:49:28.292Z,18.20
2022-07-31T06:55:31.202Z,18.30
2022-07-31T07:01:33.772Z,18.50
2022-07-31T07:07:36.664Z,18.60
2022-07-31T07:13:46.428Z,18.80
2022-07-31T07:19:49.616Z,18.90
2022-07-31T07:25:56.897Z,19.10
2022-07-31T07:31:59.913Z,19.20
2022-07-31T07:38:01.737Z,19.40
2022-07-31T07:44:03.572Z,19.60
2022-07-31T07:50:09.813Z,19.60
2022-07-31T07:56:11.681Z,19.70
2022-07-31T08:02:13.868Z,19.80
2022-07-31T08:08:15.591Z,19.90
2022-07-31T08:14:17.462Z,20.20
2022-07-31T08:20:19.256Z,20.50
2022-07-31T08:26:21.077Z,20.70
2022-07-31T08:32:26.844Z,21.00
2022-07-31T08:38:28.998Z,21.30
2022-07-31T08:44:30.994Z,21.40
2022-07-31T08:50:36.000Z,21.50
2022-07-31T08:56:38.751Z,21.60
2022-07-31T09:02:40.775Z,21.70
2022-07-31T09:08:42.487Z,21.90
2022-07-31T09:14:48.456Z,22.10
2022-07-31T09:21:05.808Z,22.40
2022-07-31T09:27:10.111Z,22.60
2022-07-31T09:33:16.779Z,22.70
2022-07-31T09:39:20.512Z,22.80
2022-07-31T09:45:28.706Z,22.90
2022-07-31T09:51:42.062Z,22.80
2022-07-31T09:57:58.397Z,22.80
2022-07-31T10:04:01.581Z,22.90
2022-07-31T10:10:06.928Z,22.90
2022-07-31T10:16:09.342Z,23.30
2022-07-31T10:22:17.579Z,23.60
2022-07-31T10:28:20.322Z,23.60
2022-07-31T10:34:22.705Z,23.70
2022-07-31T10:40:49.138Z,23.60
2022-07-31T10:46:50.998Z,23.50
2022-07-31T10:52:57.278Z,23.60
2022-07-31T10:59:02.208Z,23.90
2022-07-31T11:05:23.591Z,24.00
2022-07-31T11:11:32.959Z,23.90
2022-07-31T11:18:25.090Z,23.90
2022-07-31T11:24:03.945Z,23.70
2022-07-31T11:30:13.169Z,23.60
2022-07-31T11:36:16.623Z,23.50
2022-07-31T11:42:20.146Z,23.40
2022-07-31T11:48:35.573Z,23.30
2022-07-31T11:54:42.207Z,22.90
2022-07-31T12:00:51.694Z,22.90
2022-07-31T12:06:57.196Z,22.80
2022-07-31T12:12:59.063Z,22.80
2022-07-31T12:19:00.868Z,22.60
2022-07-31T12:25:07.272Z,22.60
2022-07-31T12:31:10.695Z,22.60
2022-07-31T12:37:19.067Z,22.60
2022-07-31T12:43:24.717Z,22.60
2022-07-31T12:49:26.703Z,22.80
2022-07-31T12:55:30.310Z,22.60
2022-07-31T13:01:33.274Z,22.60
2022-07-31T13:07:35.016Z,22.70
2022-07-31T13:13:36.832Z,22.80
2022-07-31T13:19:38.517Z,22.70
2022-07-31T13:25:40.292Z,22.70
2022-07-31T13:31:42.142Z,22.70
2022-07-31T13:37:44.087Z,22.70
2022-07-31T13:43:59.774Z,22.70
2022-07-31T13:50:02.581Z,22.80
2022-07-31T13:56:05.104Z,22.80
2022-07-31T14:02:07.459Z,22.80
2022-07-31T14:08:32.831Z,22.70
2022-07-31T14:14:31.005Z,22.50
2022-07-31T14:20:34.355Z,22.60
2022-07-31T14:26:36.129Z,22.50
2022-07-31T14:32:38.202Z,22.20
2022-07-31T14:38:39.972Z,21.90
2022-07-31T14:44:42.413Z,21.70
2022-07-31T14:50:45.347Z,21.70
2022-07-31T14:57:01.256Z,21.70
2022-07-31T15:03:03.480Z,21.60
2022-07-31T15:09:05.650Z,21.50
2022-07-31T15:15:08.549Z,21.30
2022-07-31T15:21:17.732Z,20.60
2022-07-31T15:27:21.993Z,20.20
2022-07-31T15:33:25.953Z,20.40
2022-07-31T15:39:28.678Z,20.50
2022-07-31T15:45:30.522Z,20.50
2022-07-31T15:51:32.458Z,20.50
2022-07-31T15:57:34.450Z,20.40
2022-07-31T16:03:51.063Z,20.50
2022-07-31T16:10:03.399Z,20.50
2022-07-31T16:16:17.381Z,20.50
2022-07-31T16:22:19.127Z,20.40
2022-07-31T16:28:21.026Z,20.50
2022-07-31T16:34:22.797Z,20.50
2022-07-31T16:40:30.538Z,20.50
2022-07-31T16:46:33.347Z,20.60
2022-07-31T16:52:35.183Z,20.70
2022-07-31T16:58:36.958Z,20.80
2022-07-31T17:04:38.731Z,20.80
2022-07-31T17:10:40.681Z,20.80
2022-07-31T17:16:47.045Z,20.80
2022-07-31T17:22:57.431Z,20.80
2022-07-31T17:28:59.196Z,20.90
2022-07-31T17:35:01.104Z,20.90
2022-07-31T17:41:03.391Z,21.00
2022-07-31T17:47:08.058Z,21.00
2022-07-31T17:53:10.285Z,21.00
2022-07-31T17:59:15.772Z,20.90
2022-07-31T18:05:17.589Z,20.90
2022-07-31T18:11:19.870Z,20.90
2022-07-31T18:17:21.736Z,21.00
2022-07-31T18:23:29.419Z,20.80
2022-07-31T18:29:34.016Z,20.80
2022-07-31T18:35:35.726Z,20.60
2022-07-31T18:41:38.534Z,20.40
2022-07-31T18:47:40.347Z,20.20
2022-07-31T18:53:42.047Z,20.00
2022-07-31T18:59:43.759Z,19.80
2022-07-31T19:05:46.389Z,19.70
2022-07-31T19:11:50.680Z,19.50
2022-07-31T19:17:54.865Z,19.30
2022-07-31T19:24:03.769Z,19.20
2022-07-31T19:30:08.057Z,19.10
2022-07-31T19:36:10.879Z,19.10
2022-07-31T19:42:12.683Z,19.10
2022-07-31T19:48:15.045Z,19.10
2022-07-31T19:54:16.819Z,19.00
2022-07-31T20:00:18.554Z,19.00
2022-07-31T20:06:20.997Z,19.00
2022-07-31T20:12:22.866Z,19.10
2022-07-31T20:18:28.799Z,19.10
2022-07-31T20:24:31.076Z,19.10
2022-07-31T20:30:32.771Z,19.20
2022-07-31T20:36:34.549Z,19.20
2022-07-31T20:42:38.253Z,19.20
2022-07-31T20:48:40.030Z,19.20
2022-07-31T20:54:41.741Z,19.20
2022-07-31T21:00:45.307Z,19.20
2022-07-31T21:06:47.052Z,19.20
2022-07-31T21:12:48.743Z,19.10
2022-07-31T21:18:52.639Z,19.10
2022-07-31T21:24:54.401Z,19.00
2022-07-31T21:30:56.821Z,19.00
2022-07-31T21:37:00.033Z,18.90
2022-07-31T21:43:02.587Z,18.90
2022-07-31T21:49:05.148Z,18.80
2022-07-31T21:55:07.280Z,18.80
2022-07-31T22:01:11.690Z,18.80
2022-07-31T22:07:31.973Z,18.80
2022-07-31T22:13:33.926Z,18.70
2022-07-31T22:19:35.927Z,18.70
2022-07-31T22:25:48.338Z,18.70
2022-07-31T22:31:50.097Z,18.80
2022-07-31T22:37:55.731Z,18.90
2022-07-31T22:44:13.077Z,18.90
2022-07-31T22:50:18.105Z,18.90
2022-07-31T22:56:20.211Z,18.90
2022-07-31T23:02:22.034Z,18.80
2022-07-31T23:08:23.809Z,18.70
2022-07-31T23:14:25.909Z,18.70
2022-07-31T23:20:27.751Z,18.70
2022-07-31T23:26:29.819Z,18.70
2022-07-31T23:32:31.578Z,18.70
2022-07-31T23:38:33.336Z,18.70
2022-07-31T23:44:39.979Z,18.60
2022-07-31T23:50:44.494Z,18.50
2022-07-31T23:56:46.257Z,18.40
